Time;durP1;ratioP1;P1;durP2;ratioP2;P2;SDS_P1;SDS_P2;PMS_P1;PMS_P2;Temp;Humidity;BMP_temperature;BMP_pressure;BME280_temperature;BME280_humidity;BME280_pressure;Samples;Min_cycle;Max_cycle;Signal;HPM_P1;HPM_P2
2023/09/30 00:01:01;;;;;;;14.07;4.20;;;12.10;99.90;;;;;;5050662;28;20044;-79
2023/09/30 00:03:27;;;;;;;13.80;3.67;;;12.10;99.90;;;;;;5050948;28;20043;-79
2023/09/30 00:05:53;;;;;;;12.85;3.72;;;12.00;99.90;;;;;;5049313;28;20449;-79
2023/09/30 00:08:18;;;;;;;12.23;3.90;;;12.00;99.90;;;;;;5049284;28;20032;-79
2023/09/30 00:10:44;;;;;;;12.45;4.18;;;12.00;99.90;;;;;;5042305;28;20047;-79
2023/09/30 00:13:09;;;;;;;12.63;3.53;;;12.00;99.90;;;;;;5028569;28;20123;-79
2023/09/30 00:15:35;;;;;;;13.48;3.22;;;12.00;99.90;;;;;;5034912;28;20047;-79
2023/09/30 00:18:01;;;;;;;10.02;3.47;;;12.00;99.90;;;;;;5050809;28;20032;-79
2023/09/30 00:20:27;;;;;;;10.95;3.95;;;12.00;99.90;;;;;;5050014;28;20036;-79
2023/09/30 00:22:53;;;;;;;10.82;3.85;;;12.10;99.90;;;;;;5033309;28;20041;-79
2023/09/30 00:25:20;;;;;;;12.98;3.72;;;12.10;99.90;;;;;;5051578;28;20420;-79
2023/09/30 00:27:46;;;;;;;9.77;3.55;;;12.10;99.90;;;;;;5050064;28;20079;-79
2023/09/30 00:30:12;;;;;;;10.38;3.92;;;12.10;99.90;;;;;;5049695;28;20072;-79
2023/09/30 00:32:39;;;;;;;11.20;3.40;;;12.20;99.90;;;;;;5048806;28;20416;-79
2023/09/30 00:35:05;;;;;;;13.82;4.25;;;12.10;99.90;;;;;;5048230;28;20044;-79
2023/09/30 00:37:30;;;;;;;11.25;3.55;;;12.10;99.90;;;;;;5050607;28;20546;-79
2023/09/30 00:39:56;;;;;;;13.55;3.90;;;12.10;99.90;;;;;;5032155;28;20071;-79
2023/09/30 00:42:22;;;;;;;15.95;3.85;;;12.10;99.90;;;;;;5051130;28;20123;-80
2023/09/30 00:44:47;;;;;;;10.75;3.42;;;12.10;99.90;;;;;;5051192;28;20047;-79
2023/09/30 00:47:14;;;;;;;11.90;4.18;;;12.10;99.90;;;;;;5049640;28;20037;-80
2023/09/30 00:49:42;;;;;;;14.65;3.60;;;12.00;99.90;;;;;;5049118;28;20137;-79
2023/09/30 00:52:07;;;;;;;13.52;3.58;;;12.20;99.90;;;;;;5049943;28;20068;-79
2023/09/30 00:54:33;;;;;;;11.40;3.85;;;12.00;99.90;;;;;;5050852;28;20114;-79
2023/09/30 00:57:00;;;;;;;11.38;3.95;;;12.00;99.90;;;;;;5033756;28;20069;-79
2023/09/30 00:59:26;;;;;;;11.90;3.80;;;12.00;99.90;;;;;;5050089;28;20049;-80
2023/09/30 01:01:54;;;;;;;9.48;3.88;;;11.90;99.90;;;;;;5051864;28;20094;-79
2023/09/30 01:04:20;;;;;;;8.60;3.78;;;11.90;99.90;;;;;;5050247;28;20090;-79
2023/09/30 01:06:47;;;;;;;11.45;4.10;;;11.90;99.90;;;;;;5049504;28;20040;-79
2023/09/30 01:09:12;;;;;;;14.45;4.07;;;11.90;99.90;;;;;;5032696;28;20033;-80
2023/09/30 01:11:43;;;;;;;9.82;3.45;;;11.90;99.90;;;;;;5032933;28;20056;-79
2023/09/30 01:14:30;;;;;;;12.23;3.45;;;11.80;99.90;;;;;;5032842;28;20542;-79
2023/09/30 01:16:56;;;;;;;9.95;3.40;;;11.90;99.90;;;;;;5028786;28;20045;-79
2023/09/30 01:19:25;;;;;;;10.73;3.55;;;11.80;99.90;;;;;;5051194;28;20455;-79
2023/09/30 01:21:58;;;;;;;14.52;4.15;;;11.80;99.90;;;;;;5048601;28;20404;-79
2023/09/30 01:24:24;;;;;;;10.70;3.60;;;11.90;99.90;;;;;;5048422;28;20045;-79
2023/09/30 01:26:50;;;;;;;9.77;3.55;;;11.80;99.90;;;;;;5049082;28;20480;-79
2023/09/30 01:29:17;;;;;;;14.55;3.80;;;11.80;99.90;;;;;;5049072;28;20047;-79
2023/09/30 01:31:42;;;;;;;12.77;3.67;;;11.80;99.90;;;;;;5050024;28;20500;-79
2023/09/30 01:34:09;;;;;;;10.48;3.30;;;11.80;99.90;;;;;;5048518;28;20040;-79
2023/09/30 01:36:35;;;;;;;14.68;3.65;;;11.90;99.90;;;;;;5047752;28;20089;-79
2023/09/30 01:39:02;;;;;;;10.63;3.58;;;11.90;99.90;;;;;;5047932;28;20040;-79
2023/09/30 01:41:28;;;;;;;11.15;3.30;;;11.90;99.90;;;;;;5046829;28;20029;-79
2023/09/30 01:43:53;;;;;;;11.45;3.35;;;11.90;99.90;;;;;;5046104;28;20098;-79
2023/09/30 01:46:19;;;;;;;11.10;3.47;;;11.90;99.90;;;;;;5028411;28;20045;-79
2023/09/30 01:48:44;;;;;;;14.80;3.60;;;11.90;99.90;;;;;;5046379;28;20036;-79
2023/09/30 01:51:10;;;;;;;8.43;3.13;;;12.00;99.90;;;;;;5051035;28;20043;-79
2023/09/30 01:53:36;;;;;;;13.70;3.47;;;12.00;99.90;;;;;;5047281;28;20512;-79
2023/09/30 01:56:02;;;;;;;8.57;3.63;;;12.00;99.90;;;;;;5048111;28;20036;-79
2023/09/30 01:58:28;;;;;;;13.23;3.97;;;12.00;99.90;;;;;;5046613;28;20135;-79
2023/09/30 02:00:53;;;;;;;10.57;3.38;;;12.00;99.90;;;;;;5044341;28;20043;-79
2023/09/30 02:03:19;;;;;;;14.77;4.30;;;12.00;99.90;;;;;;5038190;28;20131;-78
2023/09/30 02:05:45;;;;;;;17.23;4.45;;;12.00;99.90;;;;;;5041277;28;20581;-79
2023/09/30 02:08:10;;;;;;;6.03;3.13;;;12.00;99.90;;;;;;5047885;28;20094;-79
2023/09/30 02:10:36;;;;;;;11.75;4.22;;;12.00;99.90;;;;;;5038169;28;20047;-79
2023/09/30 02:13:05;;;;;;;8.73;3.28;;;12.00;99.90;;;;;;5045979;28;20037;-79
2023/09/30 02:15:31;;;;;;;10.82;3.90;;;12.00;99.90;;;;;;5049378;28;20045;-79
2023/09/30 02:17:57;;;;;;;13.98;4.00;;;12.00;99.90;;;;;;5043696;28;20090;-79
2023/09/30 02:20:25;;;;;;;12.63;3.72;;;12.00;99.90;;;;;;5047911;28;20082;-79
2023/09/30 02:22:52;;;;;;;10.23;3.45;;;12.00;99.90;;;;;;5023536;28;20111;-80
2023/09/30 02:25:18;;;;;;;13.05;3.70;;;12.00;99.90;;;;;;5051813;28;20064;-78
2023/09/30 02:27:44;;;;;;;12.15;3.60;;;12.00;99.90;;;;;;5051147;28;20087;-79
2023/09/30 02:30:11;;;;;;;8.40;3.45;;;12.00;99.90;;;;;;5037411;28;20523;-79
2023/09/30 02:32:40;;;;;;;9.52;3.95;;;12.00;99.90;;;;;;5052031;28;20041;-78
2023/09/30 02:35:06;;;;;;;11.05;3.17;;;12.00;99.90;;;;;;5049423;28;20037;-79
2023/09/30 02:37:36;;;;;;;12.73;4.05;;;12.00;99.90;;;;;;5048468;28;20145;-79
2023/09/30 02:40:08;;;;;;;12.25;3.92;;;12.10;99.90;;;;;;5050271;28;20404;-79
2023/09/30 02:42:37;;;;;;;10.98;4.03;;;12.10;99.90;;;;;;5044350;28;20086;-80
2023/09/30 02:45:05;;;;;;;13.57;3.47;;;12.10;99.90;;;;;;5039295;28;20045;-79
2023/09/30 02:47:31;;;;;;;11.57;3.55;;;12.10;99.90;;;;;;5050057;28;20526;-79
2023/09/30 02:49:57;;;;;;;9.98;3.30;;;12.10;99.90;;;;;;5051111;28;20044;-79
2023/09/30 02:52:24;;;;;;;11.82;3.60;;;12.00;99.90;;;;;;5051430;28;20048;-78
2023/09/30 02:54:49;;;;;;;11.75;3.58;;;12.00;99.90;;;;;;5034014;28;20037;-79
2023/09/30 02:57:15;;;;;;;8.98;3.63;;;12.00;99.90;;;;;;5034541;28;20036;-79
2023/09/30 02:59:42;;;;;;;13.57;3.25;;;12.00;99.90;;;;;;5051673;28;20048;-79
2023/09/30 03:02:07;;;;;;;12.23;3.47;;;12.00;99.90;;;;;;5051215;28;20404;-79
2023/09/30 03:04:33;;;;;;;10.70;3.20;;;12.10;99.90;;;;;;5034519;28;20047;-79
2023/09/30 03:06:59;;;;;;;7.97;3.00;;;12.10;99.90;;;;;;5047445;28;20036;-79
2023/09/30 03:09:25;;;;;;;8.93;3.25;;;12.10;99.90;;;;;;5050966;28;20087;-79
2023/09/30 03:11:51;;;;;;;9.77;3.45;;;12.10;99.90;;;;;;5046598;28;20087;-79
2023/09/30 03:14:17;;;;;;;12.38;3.00;;;12.10;99.90;;;;;;5045079;28;20107;-79
2023/09/30 03:16:44;;;;;;;12.85;3.55;;;12.10;99.90;;;;;;5049347;28;20431;-79
2023/09/30 03:19:11;;;;;;;12.52;3.17;;;12.10;99.90;;;;;;5050449;28;20400;-79
2023/09/30 03:21:37;;;;;;;9.40;3.47;;;12.10;99.90;;;;;;5052029;28;20504;-78
2023/09/30 03:24:07;;;;;;;11.88;3.45;;;12.10;99.90;;;;;;5050214;28;20047;-78
2023/09/30 03:26:34;;;;;;;7.93;3.28;;;12.00;99.90;;;;;;5045042;28;20083;-79
2023/09/30 03:28:59;;;;;;;10.57;3.47;;;12.00;99.90;;;;;;5050268;28;20040;-79
2023/09/30 03:31:25;;;;;;;9.88;3.47;;;12.00;99.90;;;;;;5050373;28;20592;-79
2023/09/30 03:33:53;;;;;;;7.18;2.90;;;12.00;99.90;;;;;;5052261;28;20114;-79
2023/09/30 03:36:25;;;;;;;14.88;3.55;;;12.00;99.90;;;;;;5050550;28;20086;-79
2023/09/30 03:38:54;;;;;;;8.73;3.10;;;12.00;99.90;;;;;;5045364;28;20481;-79
2023/09/30 03:41:20;;;;;;;13.52;3.42;;;12.00;99.90;;;;;;5051194;28;20504;-78
2023/09/30 03:43:45;;;;;;;8.80;3.65;;;11.90;99.90;;;;;;5050585;28;20227;-79
2023/09/30 03:46:12;;;;;;;9.85;3.22;;;11.90;99.90;;;;;;5047400;28;20124;-79
2023/09/30 03:48:39;;;;;;;11.40;3.53;;;11.90;99.90;;;;;;5051284;28;20464;-79
2023/09/30 03:51:25;;;;;;;9.80;3.25;;;11.90;99.90;;;;;;5050052;28;20045;-79
2023/09/30 03:53:52;;;;;;;9.55;3.22;;;11.90;99.90;;;;;;5041069;28;20163;-79
2023/09/30 03:56:18;;;;;;;12.95;4.13;;;12.00;99.90;;;;;;5049738;28;20041;-79
2023/09/30 03:58:44;;;;;;;11.20;3.83;;;11.90;99.90;;;;;;5049364;28;20515;-79
2023/09/30 04:01:13;;;;;;;13.02;3.22;;;11.80;99.90;;;;;;5032130;28;20028;-79
2023/09/30 04:03:39;;;;;;;8.32;3.15;;;11.80;99.90;;;;;;5022804;28;20052;-79
2023/09/30 04:06:08;;;;;;;9.68;3.42;;;11.80;99.90;;;;;;5040002;28;20040;-79
2023/09/30 04:08:34;;;;;;;12.82;3.90;;;11.80;99.90;;;;;;5042922;28;20041;-79
2023/09/30 04:11:00;;;;;;;9.20;3.30;;;11.80;99.90;;;;;;5050857;28;20043;-79
2023/09/30 04:13:27;;;;;;;12.13;3.67;;;11.80;99.90;;;;;;5047466;28;20408;-79
2023/09/30 04:15:52;;;;;;;13.38;3.58;;;11.80;99.90;;;;;;5048801;28;20037;-79
2023/09/30 04:18:20;;;;;;;9.68;3.83;;;11.80;99.90;;;;;;5044212;28;20033;-79
2023/09/30 04:20:46;;;;;;;11.93;3.70;;;11.80;99.90;;;;;;5044440;28;20409;-79
2023/09/30 04:23:13;;;;;;;14.30;4.07;;;11.70;99.90;;;;;;5044731;28;20041;-79
2023/09/30 04:25:39;;;;;;;12.60;3.65;;;11.80;99.90;;;;;;5041734;28;20151;-78
2023/09/30 04:28:05;;;;;;;12.93;3.80;;;11.80;99.90;;;;;;5024455;28;20041;-79
2023/09/30 04:30:32;;;;;;;15.20;4.35;;;11.80;99.90;;;;;;5050352;28;20043;-79
2023/09/30 04:32:59;;;;;;;15.10;4.70;;;11.80;99.90;;;;;;5047410;28;20041;-79
2023/09/30 04:35:25;;;;;;;14.70;5.40;;;11.80;99.90;;;;;;5047370;28;20124;-79
2023/09/30 04:37:51;;;;;;;12.68;4.72;;;11.80;99.90;;;;;;5030477;28;20035;-80
2023/09/30 04:40:19;;;;;;;14.23;5.35;;;11.80;99.90;;;;;;5044237;28;20131;-79
2023/09/30 04:42:46;;;;;;;15.52;5.65;;;11.80;99.90;;;;;;5051040;28;20044;-80
2023/09/30 04:45:12;;;;;;;14.88;5.22;;;11.80;99.90;;;;;;5050885;28;20041;-79
2023/09/30 04:47:38;;;;;;;13.10;5.68;;;11.80;99.90;;;;;;5051889;28;20056;-80
2023/09/30 04:50:08;;;;;;;14.35;6.50;;;11.80;99.90;;;;;;5047362;28;20773;-80
2023/09/30 04:52:38;;;;;;;15.27;6.35;;;11.80;99.90;;;;;;5043976;28;20124;-79
2023/09/30 04:55:04;;;;;;;13.10;5.38;;;11.70;99.90;;;;;;5047738;28;20037;-79
2023/09/30 04:57:30;;;;;;;12.57;5.70;;;11.70;99.90;;;;;;5051164;28;20036;-79
2023/09/30 04:59:57;;;;;;;13.98;5.95;;;11.70;99.90;;;;;;5050636;28;20117;-79
2023/09/30 05:02:23;;;;;;;17.58;6.00;;;11.70;99.90;;;;;;5050465;28;20064;-79
2023/09/30 05:04:49;;;;;;;15.30;5.82;;;11.70;99.90;;;;;;5047894;28;20112;-80
2023/09/30 05:07:14;;;;;;;13.82;6.25;;;11.70;99.90;;;;;;5045055;28;20661;-79
2023/09/30 05:09:41;;;;;;;14.27;5.90;;;11.70;99.90;;;;;;5034920;28;20548;-78
2023/09/30 05:12:06;;;;;;;10.85;5.72;;;11.60;99.90;;;;;;5050715;28;20150;-79
2023/09/30 05:14:33;;;;;;;12.90;5.72;;;11.60;99.90;;;;;;5050113;28;20068;-77
2023/09/30 05:16:58;;;;;;;13.40;6.15;;;11.60;99.90;;;;;;5041673;28;20500;-79
2023/09/30 05:19:24;;;;;;;12.82;6.53;;;11.60;99.90;;;;;;5028313;28;20039;-79
2023/09/30 05:21:50;;;;;;;15.57;6.55;;;11.50;99.90;;;;;;5029346;28;20033;-78
2023/09/30 05:24:18;;;;;;;11.32;6.05;;;11.50;99.90;;;;;;5022962;28;20037;-79
2023/09/30 05:26:44;;;;;;;12.88;6.07;;;11.50;99.90;;;;;;5035345;28;20404;-79
2023/09/30 05:29:10;;;;;;;13.52;6.38;;;11.50;99.90;;;;;;5045788;28;20032;-80
2023/09/30 05:31:36;;;;;;;13.75;6.80;;;11.50;99.90;;;;;;5046947;28;20041;-79
2023/09/30 05:34:02;;;;;;;22.17;7.43;;;11.50;99.90;;;;;;5030521;28;20135;-78
2023/09/30 05:36:28;;;;;;;15.30;6.90;;;11.50;99.90;;;;;;5047604;28;20467;-79
2023/09/30 05:38:55;;;;;;;17.55;6.88;;;11.40;99.90;;;;;;5047195;28;20160;-78
2023/09/30 05:41:21;;;;;;;16.38;6.90;;;11.40;99.90;;;;;;5047674;28;20068;-78
2023/09/30 05:43:47;;;;;;;14.88;6.05;;;11.40;99.90;;;;;;5047370;28;20467;-78
2023/09/30 05:46:13;;;;;;;13.98;6.43;;;11.40;99.90;;;;;;5030477;28;20067;-78
2023/09/30 05:48:41;;;;;;;11.43;6.10;;;11.40;99.90;;;;;;5047291;28;20055;-78
2023/09/30 05:51:07;;;;;;;15.65;6.68;;;11.40;99.90;;;;;;5047972;28;20068;-78
2023/09/30 05:53:32;;;;;;;14.52;6.57;;;11.30;99.90;;;;;;5031296;28;20053;-78
2023/09/30 05:55:59;;;;;;;15.75;6.63;;;11.40;99.90;;;;;;5047829;28;20049;-78
2023/09/30 05:58:26;;;;;;;17.38;7.15;;;11.40;99.90;;;;;;5049238;28;20072;-79
2023/09/30 06:00:53;;;;;;;15.57;7.47;;;11.40;99.90;;;;;;5049882;28;20506;-78
2023/09/30 06:03:21;;;;;;;14.85;6.88;;;11.30;99.90;;;;;;5049455;28;20037;-78
2023/09/30 06:05:48;;;;;;;16.23;6.82;;;11.30;99.90;;;;;;5049779;28;20178;-78
2023/09/30 06:08:14;;;;;;;15.43;6.95;;;11.30;99.90;;;;;;5049416;28;20457;-78
2023/09/30 06:10:44;;;;;;;15.43;6.88;;;11.40;99.90;;;;;;5048497;28;20127;-79
2023/09/30 06:13:11;;;;;;;17.77;6.88;;;11.30;99.90;;;;;;5048794;28;20186;-78
2023/09/30 06:15:40;;;;;;;14.40;7.20;;;11.30;99.90;;;;;;5049428;28;20513;-78
2023/09/30 06:18:07;;;;;;;16.08;7.43;;;11.30;99.90;;;;;;5049265;28;20037;-78
2023/09/30 06:20:33;;;;;;;17.95;7.93;;;11.40;99.90;;;;;;5049582;28;20116;-78
2023/09/30 06:23:00;;;;;;;14.98;7.15;;;11.40;99.90;;;;;;5049108;28;20068;-78
2023/09/30 06:25:27;;;;;;;18.13;7.72;;;11.40;99.90;;;;;;5048722;28;20044;-78
2023/09/30 06:27:54;;;;;;;14.90;7.00;;;11.40;99.90;;;;;;5049147;28;20126;-79
2023/09/30 06:30:20;;;;;;;14.82;7.45;;;11.50;99.90;;;;;;5049359;28;20075;-78
2023/09/30 06:32:46;;;;;;;18.98;7.28;;;11.50;99.90;;;;;;5049603;28;20496;-78
2023/09/30 06:35:12;;;;;;;20.73;7.80;;;11.60;99.90;;;;;;5049411;28;20039;-78
2023/09/30 06:37:39;;;;;;;13.10;7.28;;;11.60;99.90;;;;;;5032857;28;20037;-78
2023/09/30 06:40:07;;;;;;;15.57;6.78;;;11.70;99.90;;;;;;5049074;28;20060;-78
2023/09/30 06:42:35;;;;;;;15.73;6.90;;;11.80;99.90;;;;;;5049414;28;20420;-78
2023/09/30 06:45:00;;;;;;;21.42;7.70;;;11.80;99.90;;;;;;5049213;28;20068;-78
2023/09/30 06:47:26;;;;;;;16.30;8.00;;;11.90;99.90;;;;;;5049415;28;20083;-78
2023/09/30 06:49:52;;;;;;;14.93;7.55;;;11.90;99.90;;;;;;5048114;28;20087;-78
2023/09/30 06:52:18;;;;;;;20.48;7.30;;;12.00;99.90;;;;;;5052278;28;20041;-78
2023/09/30 06:54:43;;;;;;;18.10;7.82;;;12.10;99.90;;;;;;5053189;28;20040;-78
2023/09/30 06:57:09;;;;;;;12.10;7.43;;;12.10;99.90;;;;;;5052555;28;20037;-78
2023/09/30 06:59:35;;;;;;;18.75;7.82;;;12.20;99.90;;;;;;5035865;28;20041;-78
2023/09/30 07:02:00;;;;;;;16.45;7.45;;;12.30;99.90;;;;;;5052480;28;20420;-78
2023/09/30 07:04:26;;;;;;;17.98;7.55;;;12.30;99.90;;;;;;5051521;28;20037;-78
2023/09/30 07:06:53;;;;;;;14.25;7.35;;;12.50;99.90;;;;;;5051533;28;20041;-78
2023/09/30 07:09:19;;;;;;;14.40;7.47;;;12.50;99.90;;;;;;5052417;28;20044;-78
2023/09/30 07:11:45;;;;;;;15.55;8.10;;;12.60;99.90;;;;;;5052485;28;20051;-78
2023/09/30 07:14:11;;;;;;;14.15;7.43;;;12.70;99.90;;;;;;5052026;28;20041;-78
2023/09/30 07:16:37;;;;;;;15.60;7.45;;;12.80;99.90;;;;;;5052403;28;20500;-78
2023/09/30 07:19:02;;;;;;;15.48;8.05;;;12.90;99.90;;;;;;5052159;28;20492;-78
2023/09/30 07:21:28;;;;;;;17.92;7.97;;;13.00;99.90;;;;;;5052266;28;20045;-78
2023/09/30 07:23:54;;;;;;;15.32;7.82;;;13.00;99.90;;;;;;5052136;28;20051;-78
2023/09/30 07:26:24;;;;;;;14.20;7.50;;;13.10;99.90;;;;;;5052315;28;20064;-78
2023/09/30 07:28:49;;;;;;;15.20;8.00;;;13.10;99.90;;;;;;5049852;28;20040;-78
2023/09/30 07:31:15;;;;;;;12.13;7.32;;;13.10;99.90;;;;;;5052028;28;20055;-78
2023/09/30 07:33:41;;;;;;;15.00;7.95;;;13.10;99.90;;;;;;5052081;28;20083;-78
2023/09/30 07:36:06;;;;;;;17.40;8.20;;;13.10;99.90;;;;;;5052112;28;20129;-78
2023/09/30 07:38:32;;;;;;;15.55;8.15;;;13.10;99.90;;;;;;5051854;28;20415;-78
2023/09/30 07:40:57;;;;;;;13.05;7.47;;;13.20;99.90;;;;;;5052025;28;20037;-78
2023/09/30 07:43:23;;;;;;;14.60;8.00;;;13.30;99.90;;;;;;5052034;28;20098;-78
2023/09/30 07:45:48;;;;;;;12.85;8.32;;;13.40;99.90;;;;;;5051957;28;20106;-78
2023/09/30 07:48:14;;;;;;;17.30;8.43;;;13.50;99.90;;;;;;5051461;28;20120;-79
2023/09/30 07:50:40;;;;;;;16.25;8.35;;;13.60;99.90;;;;;;5052278;28;20439;-78
2023/09/30 07:53:06;;;;;;;12.40;8.15;;;13.80;99.90;;;;;;5051544;28;20523;-78
2023/09/30 07:55:31;;;;;;;10.88;7.82;;;13.80;99.90;;;;;;5051738;28;20041;-78
2023/09/30 07:58:00;;;;;;;16.17;8.80;;;14.00;99.90;;;;;;5049312;28;20044;-79
2023/09/30 08:00:25;;;;;;;14.65;7.55;;;14.10;99.90;;;;;;5051509;28;20033;-78
2023/09/30 08:02:51;;;;;;;14.80;7.32;;;14.20;99.90;;;;;;5050287;28;20140;-78
2023/09/30 08:05:16;;;;;;;12.32;7.18;;;14.30;99.90;;;;;;5035169;28;20041;-78
2023/09/30 08:07:42;;;;;;;12.27;6.70;;;14.40;99.90;;;;;;5034867;28;20320;-78
2023/09/30 08:10:13;;;;;;;13.90;7.15;;;14.50;99.90;;;;;;5050914;28;20094;-78
2023/09/30 08:12:39;;;;;;;11.63;7.20;;;14.50;99.90;;;;;;5051215;28;20048;-78
2023/09/30 08:15:05;;;;;;;13.30;6.57;;;14.60;99.90;;;;;;5051140;28;20040;-78
2023/09/30 08:17:32;;;;;;;12.43;6.47;;;14.70;99.90;;;;;;5051346;28;20415;-78
2023/09/30 08:19:57;;;;;;;14.52;6.30;;;14.70;99.90;;;;;;5034258;28;20063;-79
2023/09/30 08:22:27;;;;;;;18.00;6.45;;;14.90;99.90;;;;;;5051308;28;20029;-78
2023/09/30 08:24:53;;;;;;;13.05;6.25;;;15.00;99.90;;;;;;5049727;28;20044;-78
2023/09/30 08:27:19;;;;;;;14.77;5.93;;;15.10;99.90;;;;;;5050654;28;20128;-78
2023/09/30 08:29:44;;;;;;;13.23;5.93;;;15.10;99.90;;;;;;5051436;28;20500;-79
2023/09/30 08:32:10;;;;;;;14.68;6.25;;;15.20;99.90;;;;;;5051031;28;20033;-79
2023/09/30 08:34:35;;;;;;;11.07;5.88;;;15.30;99.90;;;;;;5052237;28;20399;-79
2023/09/30 08:37:01;;;;;;;12.90;6.03;;;15.40;99.90;;;;;;5052398;28;20041;-79
2023/09/30 08:39:27;;;;;;;12.85;6.22;;;15.50;99.90;;;;;;5051742;28;20037;-79
2023/09/30 08:41:56;;;;;;;15.07;6.88;;;15.60;99.90;;;;;;5051269;28;20229;-79
2023/09/30 08:44:21;;;;;;;13.18;6.75;;;15.60;99.90;;;;;;5051249;28;20048;-79
2023/09/30 08:46:48;;;;;;;13.48;6.75;;;15.70;99.90;;;;;;5050560;28;20049;-79
2023/09/30 08:49:15;;;;;;;13.07;6.32;;;15.70;99.90;;;;;;5050897;28;20068;-79
2023/09/30 08:51:41;;;;;;;12.85;6.30;;;15.80;99.90;;;;;;5051006;28;20036;-79
2023/09/30 08:54:07;;;;;;;10.25;6.47;;;15.90;99.90;;;;;;5051570;28;20048;-79
2023/09/30 08:56:33;;;;;;;14.65;6.43;;;15.90;99.90;;;;;;5050565;28;20476;-79
2023/09/30 08:59:00;;;;;;;14.75;6.35;;;15.90;99.90;;;;;;5048886;28;20045;-79
2023/09/30 09:01:30;;;;;;;13.57;6.30;;;16.00;99.90;;;;;;5049052;28;20128;-79
2023/09/30 09:03:56;;;;;;;14.25;6.68;;;16.10;99.90;;;;;;5050780;28;20041;-79
2023/09/30 09:06:23;;;;;;;15.32;6.80;;;16.10;99.90;;;;;;5052396;28;20128;-79
2023/09/30 09:08:49;;;;;;;12.80;6.50;;;16.20;99.90;;;;;;5050450;28;20066;-78
2023/09/30 09:11:15;;;;;;;11.65;6.30;;;16.20;99.90;;;;;;5034348;28;20040;-79
2023/09/30 09:13:45;;;;;;;13.85;6.00;;;16.30;99.90;;;;;;5035017;28;20049;-78
2023/09/30 09:16:11;;;;;;;12.32;5.72;;;16.40;99.90;;;;;;5050508;28;20047;-79
2023/09/30 09:18:37;;;;;;;12.48;5.90;;;16.40;99.90;;;;;;5048783;28;20033;-79
2023/09/30 09:21:12;;;;;;;14.50;6.18;;;16.40;99.90;;;;;;5050264;28;20041;-78
2023/09/30 09:23:43;;;;;;;14.32;5.50;;;16.50;99.90;;;;;;5035326;28;20055;-79
2023/09/30 09:26:10;;;;;;;15.20;5.60;;;16.60;99.90;;;;;;5051016;28;20545;-78
2023/09/30 09:28:38;;;;;;;9.65;4.65;;;16.70;99.90;;;;;;5034324;28;20080;-79
2023/09/30 09:31:20;;;;;;;14.15;5.45;;;16.70;99.90;;;;;;5050892;28;20060;-78
2023/09/30 09:33:45;;;;;;;10.63;5.05;;;16.70;99.90;;;;;;5051538;28;20400;-79
2023/09/30 09:36:11;;;;;;;9.93;4.80;;;16.80;99.90;;;;;;5033801;28;20047;-78
2023/09/30 09:38:53;;;;;;;13.00;5.20;;;16.90;99.90;;;;;;5049915;28;20077;-78
2023/09/30 09:41:19;;;;;;;9.38;4.50;;;16.90;99.90;;;;;;5050987;28;20045;-79
2023/09/30 09:43:50;;;;;;;9.60;4.10;;;17.00;99.90;;;;;;5050729;28;20041;-78
2023/09/30 09:46:17;;;;;;;11.60;3.85;;;17.10;99.90;;;;;;5034682;28;20044;-79
2023/09/30 09:48:48;;;;;;;11.30;3.58;;;17.10;99.90;;;;;;5049857;28;20092;-78
2023/09/30 09:51:14;;;;;;;13.07;4.35;;;17.10;99.90;;;;;;5051351;28;20399;-78
2023/09/30 09:53:41;;;;;;;11.48;4.70;;;17.20;99.90;;;;;;5051200;28;20060;-78
2023/09/30 09:56:10;;;;;;;14.77;4.47;;;17.20;99.90;;;;;;5050062;28;20041;-78
2023/09/30 09:58:38;;;;;;;8.75;3.30;;;17.40;99.90;;;;;;5051128;28;20559;-78
2023/09/30 10:01:05;;;;;;;12.55;3.75;;;17.30;99.90;;;;;;5050137;28;20508;-78
2023/09/30 10:03:32;;;;;;;13.00;3.45;;;17.40;99.90;;;;;;5051170;28;20037;-79
2023/09/30 10:06:01;;;;;;;11.43;2.97;;;17.50;99.90;;;;;;5051969;28;20037;-79
2023/09/30 10:08:40;;;;;;;12.32;3.05;;;17.60;99.90;;;;;;5050766;28;20381;-77
2023/09/30 10:11:07;;;;;;;8.50;2.67;;;17.80;99.90;;;;;;5050066;28;20049;-79
2023/09/30 10:13:52;;;;;;;10.43;2.60;;;17.90;99.90;;;;;;5049775;28;20042;-77
2023/09/30 10:16:36;;;;;;;10.50;3.05;;;17.90;99.90;;;;;;5049703;28;20084;-78
2023/09/30 10:19:08;;;;;;;10.70;2.58;;;17.90;99.90;;;;;;5049959;28;20037;-78
2023/09/30 10:21:34;;;;;;;7.93;2.50;;;17.90;99.90;;;;;;5049865;28;20076;-78
2023/09/30 10:24:24;;;;;;;10.98;2.60;;;17.80;99.90;;;;;;5051016;28;20041;-78
2023/09/30 10:27:22;;;;;;;7.60;2.08;;;17.80;99.90;;;;;;5053353;28;20040;-79
2023/09/30 10:29:53;;;;;;;9.10;2.38;;;17.80;99.90;;;;;;5053758;28;20132;-79
2023/09/30 10:32:18;;;;;;;11.13;2.50;;;17.70;99.90;;;;;;5056590;28;20051;-78
2023/09/30 10:34:52;;;;;;;9.45;2.55;;;17.80;99.90;;;;;;5054495;28;20041;-78
2023/09/30 10:37:24;;;;;;;8.82;2.78;;;17.80;99.90;;;;;;5054083;28;20052;-78
2023/09/30 10:39:58;;;;;;;7.32;2.00;;;17.80;99.90;;;;;;5055636;28;20051;-78
2023/09/30 10:42:49;;;;;;;10.63;2.40;;;17.90;99.90;;;;;;5055425;28;20033;-77
2023/09/30 10:45:40;;;;;;;10.18;2.30;;;17.90;99.90;;;;;;5039229;28;20032;-79
2023/09/30 10:48:25;;;;;;;7.63;1.95;;;17.80;99.90;;;;;;5055610;28;20043;-78
2023/09/30 10:50:56;;;;;;;7.35;1.70;;;17.70;99.90;;;;;;5056589;28;20041;-78
2023/09/30 10:53:22;;;;;;;9.55;1.80;;;17.60;99.90;;;;;;5056074;28;20036;-78
2023/09/30 10:55:55;;;;;;;7.78;1.92;;;17.50;99.90;;;;;;5055482;28;20080;-77
2023/09/30 10:58:21;;;;;;;9.50;2.22;;;17.50;99.90;;;;;;5053790;28;20138;-79
2023/09/30 11:00:54;;;;;;;10.88;2.05;;;17.50;99.90;;;;;;5037261;28;20465;-79
2023/09/30 11:03:21;;;;;;;9.70;1.75;;;17.70;99.90;;;;;;5054853;28;20400;-78
2023/09/30 11:05:51;;;;;;;19.58;2.47;;;17.90;99.90;;;;;;5056052;28;20044;-79
2023/09/30 11:08:21;;;;;;;10.45;1.95;;;18.20;99.90;;;;;;5054456;28;20399;-79
2023/09/30 11:10:48;;;;;;;8.43;1.67;;;18.40;99.90;;;;;;5054744;28;20051;-79
2023/09/30 11:13:15;;;;;;;8.20;1.65;;;18.60;99.90;;;;;;5055353;28;20037;-79
2023/09/30 11:15:41;;;;;;;6.88;1.65;;;18.80;99.90;;;;;;5054054;28;20508;-79
2023/09/30 11:18:17;;;;;;;4.80;1.33;;;19.00;99.90;;;;;;5055654;28;20033;-78
2023/09/30 11:20:44;;;;;;;7.40;1.52;;;19.20;99.90;;;;;;5038714;28;20037;-80
2023/09/30 11:23:14;;;;;;;12.38;1.70;;;19.10;99.90;;;;;;5056246;28;20084;-79
2023/09/30 11:25:41;;;;;;;5.78;1.60;;;18.90;99.90;;;;;;5055826;28;20045;-78
2023/09/30 11:28:26;;;;;;;9.38;1.85;;;18.70;99.90;;;;;;5038620;28;20076;-79
2023/09/30 11:30:58;;;;;;;13.45;1.90;;;18.50;99.90;;;;;;5040764;28;20041;-78
2023/09/30 11:33:25;;;;;;;5.68;1.60;;;18.30;99.90;;;;;;5054836;28;20048;-78
2023/09/30 11:36:04;;;;;;;7.35;1.55;;;18.10;99.90;;;;;;5055114;28;20033;-78
2023/09/30 11:38:31;;;;;;;7.47;1.77;;;17.90;99.90;;;;;;5055506;28;20112;-78
2023/09/30 11:41:06;;;;;;;6.18;1.92;;;17.70;99.90;;;;;;5054905;28;20052;-77
2023/09/30 11:43:33;;;;;;;4.63;1.60;;;17.50;99.90;;;;;;5037212;28;20626;-79
2023/09/30 11:46:10;;;;;;;6.70;1.90;;;17.30;99.90;;;;;;5055424;28;20120;-78
2023/09/30 11:48:37;;;;;;;10.32;2.00;;;17.20;99.90;;;;;;5037728;28;20037;-79
2023/09/30 11:51:03;;;;;;;7.40;1.92;;;17.10;99.90;;;;;;5054947;28;20044;-78
2023/09/30 11:53:35;;;;;;;11.15;3.10;;;17.10;99.90;;;;;;5054794;28;20036;-79
2023/09/30 11:56:02;;;;;;;10.18;2.33;;;17.10;99.90;;;;;;5054198;28;20374;-78
2023/09/30 11:58:33;;;;;;;11.15;3.00;;;17.00;99.90;;;;;;5054694;28;20032;-79
2023/09/30 12:00:59;;;;;;;7.25;1.40;;;17.10;99.90;;;;;;5054509;28;20439;-79
2023/09/30 12:03:27;;;;;;;8.13;1.70;;;17.20;99.90;;;;;;5037228;28;20041;-79
2023/09/30 12:05:55;;;;;;;6.05;1.40;;;17.40;99.90;;;;;;5053647;28;20041;-78
2023/09/30 12:08:24;;;;;;;7.78;2.45;;;17.60;99.90;;;;;;5053145;28;20124;-78
2023/09/30 12:10:50;;;;;;;8.48;1.90;;;18.00;99.90;;;;;;5054067;28;20041;-79
2023/09/30 12:13:16;;;;;;;8.68;1.45;;;18.40;99.90;;;;;;5052254;28;20044;-78
2023/09/30 12:15:42;;;;;;;10.57;2.05;;;18.80;99.90;;;;;;5052290;28;20046;-78
2023/09/30 12:18:10;;;;;;;12.70;2.10;;;19.00;99.90;;;;;;5052828;28;20039;-78
2023/09/30 12:20:36;;;;;;;11.82;1.70;;;19.20;99.90;;;;;;5054875;28;20048;-77
2023/09/30 12:23:01;;;;;;;6.13;1.80;;;19.60;99.90;;;;;;5053280;28;20028;-76
2023/09/30 12:25:27;;;;;;;8.32;1.90;;;19.80;99.90;;;;;;5036499;28;20044;-78
2023/09/30 12:27:55;;;;;;;6.40;1.60;;;19.90;99.90;;;;;;5053091;28;20049;-78
2023/09/30 12:30:21;;;;;;;6.93;1.92;;;20.10;99.90;;;;;;5054962;28;20037;-78
2023/09/30 12:32:46;;;;;;;5.63;1.70;;;20.20;99.90;;;;;;5054923;28;20417;-78
2023/09/30 12:35:12;;;;;;;9.20;1.70;;;20.30;99.90;;;;;;5052893;28;20408;-78
2023/09/30 12:37:38;;;;;;;6.38;1.83;;;20.20;99.90;;;;;;5051862;28;20044;-78
2023/09/30 12:40:07;;;;;;;4.47;1.55;;;20.00;99.90;;;;;;5054878;28;20048;-78